createdAt,value
2019-02-09T00:02:27.142Z,3.43
2019-02-09T00:07:30.551Z,5.97
2019-02-09T00:12:34.307Z,5.13
2019-02-09T00:17:37.791Z,7.67
2019-02-09T00:22:41.550Z,3.93
2019-02-09T00:27:44.978Z,5.77
2019-02-09T00:32:48.688Z,5.43
2019-02-09T00:37:52.098Z,5.30
2019-02-09T00:42:55.832Z,3.87
2019-02-09T00:47:59.539Z,3.77
2019-02-09T00:53:03.022Z,3.98
2019-02-09T00:58:06.118Z,4.57
2019-02-09T01:03:09.915Z,3.30
2019-02-09T01:08:13.540Z,2.43
2019-02-09T01:13:17.094Z,2.20
2019-02-09T01:18:20.507Z,2.27
2019-02-09T01:23:23.912Z,2.07
2019-02-09T01:28:27.322Z,2.50
2019-02-09T01:33:30.802Z,3.43
2019-02-09T01:38:33.902Z,1.77
2019-02-09T01:43:37.282Z,3.15
2019-02-09T01:48:40.732Z,2.10
2019-02-09T01:53:44.150Z,2.43
2019-02-09T01:58:47.549Z,2.30
2019-02-09T02:03:50.883Z,2.20
2019-02-09T02:08:54.209Z,3.67
2019-02-09T02:13:57.905Z,2.00
2019-02-09T02:19:01.637Z,1.70
2019-02-09T02:24:05.058Z,2.00
2019-02-09T02:29:08.471Z,2.57
2019-02-09T02:34:12.280Z,2.17
2019-02-09T02:39:15.695Z,1.80
2019-02-09T02:44:19.130Z,3.17
2019-02-09T02:49:22.530Z,2.97
2019-02-09T02:54:26.245Z,2.00
2019-02-09T02:59:29.973Z,1.70
2019-02-09T03:04:33.633Z,1.80
2019-02-09T03:09:37.014Z,1.90
2019-02-09T03:14:40.450Z,3.83
2019-02-09T03:19:43.527Z,1.73
2019-02-09T03:24:47.775Z,1.87
2019-02-09T03:29:51.478Z,1.60
2019-02-09T03:34:54.939Z,2.13
2019-02-09T03:39:58.035Z,1.60
2019-02-09T03:45:01.450Z,2.50
2019-02-09T03:50:08.211Z,1.40
2019-02-09T03:55:11.972Z,1.00
2019-02-09T04:00:23.191Z,1.70
2019-02-09T04:05:26.875Z,2.20
2019-02-09T04:10:30.570Z,1.70
2019-02-09T04:15:34.290Z,1.47
2019-02-09T04:20:37.618Z,1.40
2019-02-09T04:25:41.033Z,2.70
2019-02-09T04:30:44.741Z,1.20
2019-02-09T04:35:48.158Z,1.87
2019-02-09T04:40:51.578Z,1.30
2019-02-09T04:45:55.237Z,1.10
2019-02-09T04:50:58.648Z,1.43
2019-02-09T04:56:01.943Z,1.37
2019-02-09T05:01:13.636Z,3.77
2019-02-09T05:06:10.798Z,3.50
2019-02-09T05:11:14.518Z,1.63
2019-02-09T05:16:17.927Z,2.13
2019-02-09T05:21:21.359Z,3.40
2019-02-09T05:26:25.078Z,3.43
2019-02-09T05:31:28.474Z,4.20
2019-02-09T05:36:31.872Z,3.93
2019-02-09T05:41:35.630Z,3.77
2019-02-09T05:46:39.138Z,4.22
2019-02-09T05:51:42.882Z,2.27
2019-02-09T05:56:46.586Z,5.83
2019-02-09T06:01:49.709Z,2.93
2019-02-09T06:06:53.417Z,4.73
2019-02-09T06:11:57.138Z,3.97
2019-02-09T06:17:00.858Z,3.77
2019-02-09T06:22:04.336Z,4.13
2019-02-09T06:27:07.994Z,5.03
2019-02-09T06:32:11.402Z,5.07
2019-02-09T06:37:15.135Z,6.37
2019-02-09T06:42:18.469Z,5.53
2019-02-09T06:47:21.927Z,5.23
2019-02-09T06:52:25.321Z,4.47
2019-02-09T06:57:28.401Z,5.33
2019-02-09T07:02:31.812Z,5.43
2019-02-09T07:07:35.221Z,4.50
2019-02-09T07:12:38.932Z,5.73
2019-02-09T07:17:43.295Z,4.37
2019-02-09T07:22:46.402Z,4.17
2019-02-09T07:27:49.887Z,2.13
2019-02-09T07:32:53.234Z,5.37
2019-02-09T07:37:56.908Z,5.47
2019-02-09T07:43:00.345Z,4.60
2019-02-09T07:48:04.689Z,6.07
2019-02-09T07:53:08.103Z,3.37
2019-02-09T07:58:11.501Z,5.37
2019-02-09T08:03:14.626Z,7.07
2019-02-09T08:08:18.048Z,4.80
2019-02-09T08:13:22.494Z,4.40
2019-02-09T08:18:26.325Z,6.07
2019-02-09T08:23:29.452Z,6.50
2019-02-09T08:28:32.535Z,9.27
2019-02-09T08:33:37.068Z,4.60
2019-02-09T08:38:40.503Z,4.47
2019-02-09T08:43:43.904Z,4.27
2019-02-09T08:48:47.564Z,7.70
2019-02-09T08:53:51.895Z,3.25
2019-02-09T08:58:55.319Z,4.87
2019-02-09T09:03:58.394Z,8.03
2019-02-09T09:09:02.087Z,5.10
2019-02-09T09:14:05.411Z,5.67
2019-02-09T09:19:09.049Z,8.30
2019-02-09T09:24:12.458Z,8.17
2019-02-09T09:29:16.272Z,9.73
2019-02-09T09:34:19.362Z,6.80
2019-02-09T09:39:23.095Z,9.43
2019-02-09T09:44:26.816Z,6.43
2019-02-09T09:49:30.238Z,11.30
2019-02-09T09:54:33.743Z,9.40
2019-02-09T09:59:36.865Z,12.30
2019-02-09T10:04:40.330Z,7.20
2019-02-09T10:09:43.983Z,9.70
2019-02-09T10:14:47.085Z,8.80
2019-02-09T10:19:50.818Z,10.03
2019-02-09T10:24:54.462Z,6.57
2019-02-09T10:29:58.155Z,8.87
2019-02-09T10:35:01.311Z,8.87
2019-02-09T10:40:08.002Z,6.73
2019-02-09T10:45:17.533Z,12.83
2019-02-09T10:50:22.172Z,16.20
2019-02-09T10:55:25.999Z,15.67
2019-02-09T11:00:40.849Z,24.57
2019-02-09T11:05:43.973Z,23.00
2019-02-09T11:10:48.006Z,12.63
2019-02-09T11:15:51.457Z,14.10
2019-02-09T11:20:54.917Z,10.13
2019-02-09T11:25:58.109Z,9.03
2019-02-09T11:31:01.276Z,7.40
2019-02-09T11:36:04.805Z,11.83
2019-02-09T11:41:08.246Z,10.30
2019-02-09T11:46:11.614Z,12.97
2019-02-09T11:51:15.328Z,8.67
2019-02-09T11:56:18.812Z,7.13
2019-02-09T12:01:22.262Z,11.70
2019-02-09T12:06:25.393Z,11.60
2019-02-09T12:11:29.065Z,6.37
2019-02-09T12:16:32.814Z,11.57
2019-02-09T12:21:36.235Z,13.15
2019-02-09T12:26:39.679Z,10.93
2019-02-09T12:31:43.135Z,8.27
2019-02-09T12:36:46.876Z,9.63
2019-02-09T12:41:50.882Z,11.00
2019-02-09T12:46:54.322Z,9.77
2019-02-09T12:51:57.779Z,7.37
2019-02-09T12:57:01.265Z,4.73
2019-02-09T13:02:05.381Z,9.00
2019-02-09T13:07:09.106Z,7.87
2019-02-09T13:12:12.622Z,8.27
2019-02-09T13:17:16.051Z,13.57
2019-02-09T13:22:20.581Z,8.90
2019-02-09T13:27:24.297Z,7.57
2019-02-09T13:32:27.430Z,9.80
2019-02-09T13:37:31.139Z,9.40
2019-02-09T13:42:34.563Z,8.50
2019-02-09T13:47:38.271Z,6.40
2019-02-09T13:52:41.699Z,6.20
2019-02-09T13:57:45.457Z,5.97
2019-02-09T14:02:48.589Z,5.53
2019-02-09T14:07:52.188Z,6.77
2019-02-09T14:12:55.661Z,7.93
2019-02-09T14:18:00.268Z,6.13
2019-02-09T14:23:03.725Z,7.67
2019-02-09T14:28:07.753Z,5.57
2019-02-09T14:33:12.820Z,8.77
2019-02-09T14:38:16.324Z,6.17
2019-02-09T14:43:19.832Z,6.53
2019-02-09T14:48:23.649Z,5.60
2019-02-09T14:53:27.178Z,6.30
2019-02-09T14:58:30.675Z,4.83
2019-02-09T15:03:34.115Z,3.10
2019-02-09T15:08:37.422Z,6.63
2019-02-09T15:13:40.939Z,3.73
2019-02-09T15:18:44.763Z,5.60
2019-02-09T15:23:48.254Z,5.53
2019-02-09T15:28:51.734Z,6.67
2019-02-09T15:33:55.238Z,7.20
2019-02-09T15:38:58.734Z,5.03
2019-02-09T15:44:01.893Z,6.80
2019-02-09T15:49:05.545Z,6.40
2019-02-09T15:54:09.303Z,5.70
2019-02-09T15:59:12.789Z,6.27
2019-02-09T16:04:17.988Z,7.90
2019-02-09T16:09:21.098Z,8.43
2019-02-09T16:14:24.878Z,8.13
2019-02-09T16:19:28.297Z,7.53
2019-02-09T16:24:31.467Z,9.23
2019-02-09T16:29:35.215Z,6.77
2019-02-09T16:34:38.340Z,7.63
2019-02-09T16:39:41.847Z,11.17
2019-02-09T16:44:45.275Z,9.00
2019-02-09T16:49:48.761Z,9.20
2019-02-09T16:54:52.289Z,7.33
2019-02-09T16:59:55.846Z,16.13
2019-02-09T17:04:59.336Z,31.03
2019-02-09T17:10:03.061Z,12.87
2019-02-09T17:15:09.875Z,18.33
2019-02-09T17:20:14.288Z,23.27
2019-02-09T17:25:18.438Z,6.27
2019-02-09T17:30:31.485Z,8.40
2019-02-09T17:35:35.105Z,8.50
2019-02-09T17:40:40.165Z,7.40
2019-02-09T17:45:46.917Z,6.70
2019-02-09T17:50:50.078Z,13.83
2019-02-09T17:55:53.872Z,22.83
2019-02-09T18:00:58.930Z,8.60
2019-02-09T18:06:02.753Z,7.17
2019-02-09T18:11:06.253Z,9.17
2019-02-09T18:16:09.413Z,7.93
2019-02-09T18:21:12.873Z,4.80
2019-02-09T18:26:16.712Z,5.25
2019-02-09T18:31:19.858Z,3.23
2019-02-09T18:36:23.374Z,4.43
2019-02-09T18:41:27.254Z,4.93
2019-02-09T18:46:30.750Z,4.73
2019-02-09T18:51:34.213Z,5.83
2019-02-09T18:56:37.744Z,5.03
2019-02-09T19:01:41.333Z,4.00
2019-02-09T19:06:45.046Z,4.83
2019-02-09T19:11:48.469Z,5.77
2019-02-09T19:16:51.632Z,9.13
2019-02-09T19:21:55.141Z,5.70
2019-02-09T19:26:58.883Z,9.73
2019-02-09T19:32:02.597Z,7.67
2019-02-09T19:37:06.056Z,8.00
2019-02-09T19:42:09.561Z,9.57
2019-02-09T19:47:12.724Z,7.97
2019-02-09T19:52:16.251Z,9.73
2019-02-09T19:57:19.754Z,12.67
2019-02-09T20:02:23.541Z,9.23
2019-02-09T20:07:27.359Z,10.57
2019-02-09T20:12:31.212Z,9.87
2019-02-09T20:17:34.939Z,12.47
2019-02-09T20:22:38.177Z,8.87
2019-02-09T20:27:41.654Z,7.23
2019-02-09T20:32:44.821Z,11.90
2019-02-09T20:37:48.710Z,16.80
2019-02-09T20:42:52.096Z,11.63
2019-02-09T20:47:55.618Z,20.43
2019-02-09T20:52:58.790Z,16.53
2019-02-09T20:58:02.527Z,13.50
2019-02-09T21:03:06.301Z,11.27
2019-02-09T21:08:09.894Z,12.73
2019-02-09T21:13:13.441Z,15.33
2019-02-09T21:18:16.939Z,12.33
2019-02-09T21:23:20.129Z,8.70
2019-02-09T21:28:23.938Z,13.10
2019-02-09T21:33:27.127Z,14.37
2019-02-09T21:38:30.975Z,13.63
2019-02-09T21:43:34.803Z,13.50
2019-02-09T21:48:38.293Z,12.63
2019-02-09T21:53:41.474Z,13.83
2019-02-09T21:58:44.658Z,11.80
2019-02-09T22:03:48.417Z,12.60
2019-02-09T22:08:51.779Z,9.13
2019-02-09T22:13:55.743Z,11.30
2019-02-09T22:18:59.807Z,12.27
2019-02-09T22:24:03.075Z,16.93
2019-02-09T22:29:06.753Z,13.03
2019-02-09T22:34:10.517Z,12.77
2019-02-09T22:39:14.317Z,14.90
2019-02-09T22:44:17.637Z,13.75
2019-02-09T22:49:21.341Z,12.20
2019-02-09T22:54:24.792Z,10.87
2019-02-09T22:59:27.876Z,11.67
2019-02-09T23:04:37.216Z,13.93
2019-02-09T23:09:40.625Z,12.77
2019-02-09T23:14:44.111Z,12.93
2019-02-09T23:19:47.771Z,14.77
2019-02-09T23:24:51.514Z,8.83
2019-02-09T23:29:56.035Z,12.63
2019-02-09T23:34:59.438Z,12.50
2019-02-09T23:40:02.526Z,12.82
2019-02-09T23:45:06.870Z,12.20
2019-02-09T23:50:10.016Z,11.20
2019-02-09T23:55:13.109Z,10.60
